createdAt,value
2023-05-09T00:00:08.011Z,22.57
2023-05-09T00:02:34.826Z,22.51
2023-05-09T00:05:01.593Z,22.45
2023-05-09T00:07:28.395Z,22.30
2023-05-09T00:09:56.502Z,22.33
2023-05-09T00:12:23.346Z,22.33
2023-05-09T00:14:50.597Z,22.33
2023-05-09T00:17:17.250Z,22.26
2023-05-09T00:19:44.409Z,22.33
2023-05-09T00:22:11.059Z,22.17
2023-05-09T00:24:37.671Z,22.13
2023-05-09T00:27:06.043Z,22.09
2023-05-09T00:29:32.650Z,22.02
2023-05-09T00:31:59.403Z,22.07
2023-05-09T00:34:26.200Z,21.86
2023-05-09T00:36:52.856Z,21.82
2023-05-09T00:39:19.467Z,21.76
2023-05-09T00:41:46.491Z,21.74
2023-05-09T00:44:14.591Z,21.70
2023-05-09T00:46:41.494Z,21.66
2023-05-09T00:49:08.489Z,21.59
2023-05-09T00:51:36.841Z,21.74
2023-05-09T00:54:03.650Z,21.64
2023-05-09T00:56:31.280Z,21.58
2023-05-09T00:58:58.549Z,21.57
2023-05-09T01:01:26.907Z,21.57
2023-05-09T01:03:55.194Z,21.60
2023-05-09T01:06:31.262Z,21.47
2023-05-09T01:09:03.482Z,21.44
2023-05-09T01:11:36.319Z,21.32
2023-05-09T01:14:12.706Z,21.32
2023-05-09T01:16:47.629Z,21.29
2023-05-09T01:19:32.885Z,21.22
2023-05-09T01:22:05.680Z,21.17
2023-05-09T01:25:01.052Z,21.13
2023-05-09T01:27:37.642Z,21.15
2023-05-09T01:30:10.121Z,21.12
2023-05-09T01:32:39.255Z,21.08
2023-05-09T01:35:12.004Z,21.05
2023-05-09T01:37:42.944Z,21.15
2023-05-09T01:40:14.314Z,21.19
2023-05-09T01:42:44.205Z,21.26
2023-05-09T01:45:15.774Z,21.24
2023-05-09T01:47:43.882Z,21.23
2023-05-09T01:50:12.667Z,21.15
2023-05-09T01:52:40.755Z,21.13
2023-05-09T01:55:08.924Z,21.08
2023-05-09T01:57:37.595Z,21.14
2023-05-09T02:00:06.366Z,21.06
2023-05-09T02:02:35.879Z,21.22
2023-05-09T02:05:02.906Z,21.12
2023-05-09T02:07:30.104Z,21.14
2023-05-09T02:09:58.379Z,21.04
2023-05-09T02:12:25.128Z,21.09
2023-05-09T02:14:52.021Z,21.10
2023-05-09T02:17:18.711Z,21.02
2023-05-09T02:19:46.913Z,21.05
2023-05-09T02:22:15.156Z,21.08
2023-05-09T02:24:43.123Z,21.08
2023-05-09T02:27:11.651Z,21.22
2023-05-09T02:29:44.826Z,21.12
2023-05-09T02:32:15.175Z,21.15
2023-05-09T02:34:42.685Z,21.16
2023-05-09T02:37:11.826Z,21.16
2023-05-09T02:39:38.599Z,21.14
2023-05-09T02:42:06.993Z,21.20
2023-05-09T02:44:33.819Z,21.15
2023-05-09T02:47:01.072Z,21.11
2023-05-09T02:49:32.308Z,21.11
2023-05-09T02:51:59.697Z,21.16
2023-05-09T02:54:27.795Z,21.16
2023-05-09T02:56:54.434Z,21.33
2023-05-09T02:59:21.474Z,21.34
2023-05-09T03:01:48.215Z,21.31
2023-05-09T03:04:14.961Z,21.29
2023-05-09T03:06:41.741Z,21.13
2023-05-09T03:09:08.318Z,21.03
2023-05-09T03:11:36.522Z,20.98
2023-05-09T03:14:03.484Z,20.99
2023-05-09T03:16:30.258Z,21.01
2023-05-09T03:18:57.193Z,20.99
2023-05-09T03:21:23.795Z,21.10
2023-05-09T03:23:50.438Z,21.16
2023-05-09T03:26:17.365Z,21.16
2023-05-09T03:28:46.181Z,21.17
2023-05-09T03:31:12.849Z,21.21
2023-05-09T03:33:39.920Z,21.15
2023-05-09T03:36:07.112Z,21.11
2023-05-09T03:38:33.789Z,21.18
2023-05-09T03:41:00.536Z,21.24
2023-05-09T03:43:27.180Z,21.03
2023-05-09T03:45:55.188Z,21.06
2023-05-09T03:48:21.985Z,20.97
2023-05-09T03:50:48.656Z,20.99
2023-05-09T03:53:15.334Z,20.91
2023-05-09T03:55:42.062Z,21.00
2023-05-09T03:58:08.685Z,21.21
2023-05-09T04:00:35.364Z,21.08
2023-05-09T04:03:04.318Z,20.97
2023-05-09T04:05:31.164Z,20.85
2023-05-09T04:07:57.741Z,20.86
2023-05-09T04:10:24.430Z,21.04
2023-05-09T04:12:51.104Z,21.04
2023-05-09T04:15:17.976Z,20.98
2023-05-09T04:17:44.614Z,20.93
2023-05-09T04:20:13.564Z,20.75
2023-05-09T04:22:40.182Z,20.55
2023-05-09T04:25:08.017Z,20.32
2023-05-09T04:27:34.588Z,20.37
2023-05-09T04:30:01.261Z,20.38
2023-05-09T04:32:28.079Z,20.25
2023-05-09T04:34:54.728Z,20.13
2023-05-09T04:37:22.807Z,20.06
2023-05-09T04:39:49.514Z,20.03
2023-05-09T04:42:16.096Z,20.12
2023-05-09T04:44:42.752Z,20.22
2023-05-09T04:47:09.578Z,20.30
2023-05-09T04:49:36.252Z,20.45
2023-05-09T04:52:03.013Z,20.62
2023-05-09T04:54:31.260Z,20.76
2023-05-09T04:57:09.813Z,20.71
2023-05-09T04:59:40.942Z,20.62
2023-05-09T05:02:07.571Z,20.58
2023-05-09T05:04:34.192Z,20.69
2023-05-09T05:07:00.915Z,20.52
2023-05-09T05:09:27.575Z,20.44
2023-05-09T05:12:01.716Z,20.62
2023-05-09T05:14:30.082Z,20.75
2023-05-09T05:16:56.678Z,20.40
2023-05-09T05:19:23.788Z,20.19
2023-05-09T05:21:50.490Z,20.18
2023-05-09T05:24:17.196Z,20.25
2023-05-09T05:26:43.922Z,20.41
2023-05-09T05:29:11.966Z,20.54
2023-05-09T05:31:38.728Z,20.48
2023-05-09T05:34:05.423Z,20.43
2023-05-09T05:36:32.095Z,20.57
2023-05-09T05:38:58.820Z,20.58
2023-05-09T05:41:25.679Z,20.58
2023-05-09T05:43:54.082Z,20.56
2023-05-09T05:46:22.582Z,20.62
2023-05-09T05:48:49.354Z,20.74
2023-05-09T05:51:16.030Z,20.70
2023-05-09T05:53:42.936Z,20.72
2023-05-09T05:56:09.858Z,20.79
2023-05-09T05:58:37.070Z,20.91
2023-05-09T06:01:03.964Z,20.91
2023-05-09T06:03:31.997Z,21.09
2023-05-09T06:05:59.068Z,21.20
2023-05-09T06:08:25.855Z,21.30
2023-05-09T06:10:52.569Z,21.49
2023-05-09T06:13:19.349Z,21.84
2023-05-09T06:15:46.303Z,22.12
2023-05-09T06:18:13.016Z,22.70
2023-05-09T06:20:41.106Z,22.94
2023-05-09T06:23:07.970Z,23.13
2023-05-09T06:25:34.628Z,23.23
2023-05-09T06:28:01.267Z,23.12
2023-05-09T06:30:28.331Z,22.57
2023-05-09T06:32:55.450Z,22.17
2023-05-09T06:35:22.336Z,22.16
2023-05-09T06:37:50.565Z,22.08
2023-05-09T06:40:17.416Z,21.88
2023-05-09T06:42:44.497Z,22.05
2023-05-09T06:45:12.046Z,21.89
2023-05-09T06:47:38.738Z,21.93
2023-05-09T06:50:06.484Z,22.09
2023-05-09T06:52:33.394Z,22.06
2023-05-09T06:55:01.465Z,22.08
2023-05-09T06:57:28.553Z,21.85
2023-05-09T06:59:55.564Z,21.69
2023-05-09T07:02:22.222Z,21.84
2023-05-09T07:04:48.962Z,21.96
2023-05-09T07:07:15.903Z,22.07
2023-05-09T07:09:42.571Z,22.13
2023-05-09T07:12:10.556Z,22.06
2023-05-09T07:14:37.490Z,21.88
2023-05-09T07:17:21.092Z,22.12
2023-05-09T07:19:49.413Z,21.91
2023-05-09T07:22:16.221Z,22.27
2023-05-09T07:24:44.570Z,22.32
2023-05-09T07:27:12.844Z,22.51
2023-05-09T07:29:39.541Z,22.33
2023-05-09T07:32:06.409Z,22.32
2023-05-09T07:34:33.606Z,22.60
2023-05-09T07:37:00.233Z,22.78
2023-05-09T07:39:26.833Z,22.99
2023-05-09T07:58:39.847Z,21.79
2023-05-09T08:01:06.713Z,22.16
2023-05-09T08:03:34.129Z,22.17
2023-05-09T08:06:02.591Z,22.41
2023-05-09T08:08:33.136Z,22.43
2023-05-09T08:11:00.603Z,22.42
2023-05-09T08:13:29.812Z,22.40
2023-05-09T08:15:59.538Z,22.75
2023-05-09T08:18:27.783Z,22.73
2023-05-09T08:20:55.614Z,22.91
2023-05-09T08:23:22.371Z,23.10
2023-05-09T08:25:54.299Z,23.43
2023-05-09T08:28:22.592Z,23.50
2023-05-09T08:30:52.257Z,23.58
2023-05-09T08:33:22.359Z,24.03
2023-05-09T08:35:54.816Z,23.81
2023-05-09T08:38:26.346Z,23.96
2023-05-09T08:40:54.019Z,24.05
2023-05-09T08:43:25.147Z,23.45
2023-05-09T08:45:57.933Z,23.30
2023-05-09T08:48:32.022Z,23.14
2023-05-09T08:51:01.405Z,23.39
2023-05-09T08:53:29.288Z,23.58
2023-05-09T08:55:59.749Z,23.28
2023-05-09T08:58:28.352Z,22.93
2023-05-09T09:00:56.919Z,22.73
2023-05-09T09:03:24.705Z,22.92
2023-05-09T09:05:54.760Z,22.85
2023-05-09T09:08:22.901Z,22.94
2023-05-09T09:10:51.169Z,22.80
2023-05-09T09:13:18.930Z,22.89
2023-05-09T09:15:47.023Z,23.02
2023-05-09T09:18:22.352Z,23.24
2023-05-09T09:20:57.101Z,23.49
2023-05-09T09:23:27.780Z,23.59
2023-05-09T09:26:00.560Z,23.70
2023-05-09T09:28:28.662Z,23.46
2023-05-09T09:30:57.068Z,23.78
2023-05-09T09:33:25.955Z,24.10
2023-05-09T09:35:56.597Z,24.66
2023-05-09T09:38:24.868Z,24.41
2023-05-09T09:40:56.047Z,23.97
2023-05-09T09:43:28.403Z,23.66
2023-05-09T09:45:57.705Z,23.94
2023-05-09T09:48:25.937Z,23.78
2023-05-09T09:50:58.470Z,23.63
2023-05-09T09:53:28.507Z,23.06
2023-05-09T09:55:55.836Z,23.09
2023-05-09T09:58:24.155Z,23.31
2023-05-09T10:01:05.822Z,23.83
2023-05-09T10:03:39.797Z,24.06
2023-05-09T10:06:11.769Z,24.37
2023-05-09T10:08:42.142Z,24.61
2023-05-09T10:11:10.483Z,24.78
2023-05-09T10:13:38.525Z,24.87
2023-05-09T10:16:08.871Z,25.05
2023-05-09T10:18:36.172Z,25.46
2023-05-09T10:21:05.407Z,25.03
2023-05-09T10:23:38.257Z,24.86
2023-05-09T10:26:19.287Z,24.46
2023-05-09T10:28:49.188Z,24.42
2023-05-09T10:31:23.645Z,24.58
2023-05-09T10:33:51.976Z,24.97
2023-05-09T10:36:20.768Z,25.12
2023-05-09T10:38:50.704Z,24.53
2023-05-09T10:41:18.290Z,24.61
2023-05-09T10:43:46.022Z,24.85
2023-05-09T10:46:14.419Z,25.18
2023-05-09T10:48:43.442Z,25.53
2023-05-09T10:51:12.955Z,25.54
2023-05-09T10:53:44.455Z,25.37
2023-05-09T10:56:26.357Z,25.03
2023-05-09T10:58:53.853Z,25.06
2023-05-09T11:01:31.735Z,25.26
2023-05-09T11:04:01.690Z,25.28
2023-05-09T11:06:45.342Z,25.14
2023-05-09T11:09:32.756Z,24.98
2023-05-09T11:12:10.353Z,24.64
2023-05-09T11:14:43.882Z,24.62
2023-05-09T11:17:13.306Z,24.56
2023-05-09T11:20:03.857Z,25.08
2023-05-09T11:22:38.818Z,25.19
2023-05-09T11:25:08.267Z,25.33
2023-05-09T11:27:45.865Z,25.12
2023-05-09T11:30:15.306Z,25.50
2023-05-09T11:32:45.519Z,26.32
2023-05-09T11:35:20.789Z,26.23
2023-05-09T11:37:49.759Z,25.84
2023-05-09T11:40:19.179Z,24.74
2023-05-09T11:42:50.207Z,24.34
2023-05-09T11:45:18.405Z,24.42
2023-05-09T11:47:47.061Z,24.71
2023-05-09T11:50:16.513Z,24.79
2023-05-09T11:52:45.209Z,24.57
2023-05-09T11:55:18.758Z,24.60
2023-05-09T11:57:50.224Z,24.55
2023-05-09T12:00:20.134Z,24.40
2023-05-09T12:02:49.782Z,24.40
2023-05-09T12:05:18.653Z,24.16
2023-05-09T12:07:47.524Z,24.04
2023-05-09T12:10:16.761Z,24.08
2023-05-09T12:12:49.205Z,23.67
2023-05-09T12:15:18.597Z,23.53
2023-05-09T12:17:48.266Z,23.72
2023-05-09T12:20:17.822Z,23.95
2023-05-09T12:22:45.030Z,23.93
2023-05-09T12:25:16.009Z,23.92
2023-05-09T12:27:43.655Z,23.81
2023-05-09T12:30:13.733Z,23.75
2023-05-09T12:32:41.922Z,24.23
2023-05-09T12:35:11.069Z,24.39
2023-05-09T12:37:38.815Z,23.89
2023-05-09T12:40:14.075Z,23.82
2023-05-09T12:42:44.594Z,23.54
2023-05-09T12:45:13.452Z,23.48
2023-05-09T12:47:41.321Z,23.73
2023-05-09T12:50:12.970Z,23.43
2023-05-09T12:52:50.654Z,23.19
2023-05-09T12:55:22.195Z,23.59
2023-05-09T12:57:59.911Z,23.65
2023-05-09T13:00:29.322Z,23.45
2023-05-09T13:02:56.579Z,23.86
2023-05-09T13:05:24.045Z,24.09
2023-05-09T13:07:59.404Z,24.43
2023-05-09T13:10:28.116Z,24.55
2023-05-09T13:12:55.744Z,24.32
2023-05-09T13:15:24.330Z,24.12
2023-05-09T13:17:53.415Z,24.18
2023-05-09T13:20:20.525Z,24.27
2023-05-09T13:22:48.214Z,24.35
2023-05-09T13:25:15.641Z,24.27
2023-05-09T13:27:43.071Z,24.62
2023-05-09T13:30:12.470Z,24.46
2023-05-09T13:32:39.988Z,24.37
2023-05-09T13:35:09.676Z,24.03
2023-05-09T13:37:37.488Z,23.89
2023-05-09T13:40:05.608Z,23.98
2023-05-09T13:42:34.864Z,23.98
2023-05-09T13:45:03.285Z,23.68
2023-05-09T13:47:30.700Z,24.05
2023-05-09T13:49:58.294Z,23.48
2023-05-09T13:52:26.964Z,23.90
2023-05-09T13:54:54.758Z,23.84
2023-05-09T13:57:22.136Z,24.30
2023-05-09T13:59:49.367Z,24.46
2023-05-09T14:02:16.413Z,24.09
2023-05-09T14:04:43.994Z,24.24
2023-05-09T14:07:11.289Z,24.61
2023-05-09T14:09:40.327Z,24.80
2023-05-09T14:12:07.635Z,24.54
2023-05-09T14:14:35.013Z,24.99
2023-05-09T14:17:02.427Z,25.42
2023-05-09T14:19:29.643Z,25.92
2023-05-09T14:21:57.038Z,26.01
2023-05-09T14:24:24.158Z,25.04
2023-05-09T14:26:53.264Z,24.83
2023-05-09T14:29:20.464Z,24.81
2023-05-09T14:31:47.844Z,24.74
2023-05-09T14:34:15.149Z,24.89
2023-05-09T14:36:42.786Z,24.76
2023-05-09T14:39:10.160Z,24.61
2023-05-09T14:41:38.263Z,24.40
2023-05-09T14:44:08.506Z,24.46
2023-05-09T14:46:35.908Z,24.24
2023-05-09T14:49:03.149Z,24.59
2023-05-09T14:51:30.839Z,24.35
2023-05-09T14:53:57.867Z,24.14
2023-05-09T14:56:25.139Z,23.91
2023-05-09T14:58:52.350Z,23.53
2023-05-09T15:01:21.435Z,23.78
2023-05-09T15:03:48.779Z,23.80
2023-05-09T15:06:16.197Z,23.76
2023-05-09T15:08:44.758Z,23.34
2023-05-09T15:11:12.902Z,23.53
2023-05-09T15:13:40.072Z,23.99
2023-05-09T15:16:07.967Z,23.80
2023-05-09T15:18:37.373Z,23.86
2023-05-09T15:21:04.536Z,23.53
2023-05-09T15:23:31.654Z,23.41
2023-05-09T15:26:00.000Z,23.31
2023-05-09T15:28:27.484Z,23.81
2023-05-09T15:30:54.708Z,23.81
2023-05-09T15:33:22.615Z,23.82
2023-05-09T15:35:57.043Z,23.58
2023-05-09T15:38:24.288Z,23.79
2023-05-09T15:40:52.203Z,24.27
2023-05-09T15:43:19.498Z,24.58
2023-05-09T15:45:47.665Z,24.72
2023-05-09T15:48:15.400Z,24.78
2023-05-09T15:50:44.292Z,24.99
2023-05-09T15:53:13.637Z,24.98
2023-05-09T15:55:41.373Z,24.40
2023-05-09T15:58:08.862Z,23.84
2023-05-09T16:00:36.681Z,23.62
2023-05-09T16:03:04.458Z,23.65
2023-05-09T16:05:31.755Z,23.85
2023-05-09T16:07:59.197Z,23.76
2023-05-09T16:10:28.367Z,23.95
2023-05-09T16:12:56.499Z,24.19
2023-05-09T16:15:23.853Z,24.13
2023-05-09T16:17:51.023Z,24.35
2023-05-09T16:20:18.551Z,24.06
2023-05-09T16:22:46.017Z,24.06
2023-05-09T16:25:15.580Z,23.62
2023-05-09T16:27:44.941Z,23.91
2023-05-09T16:30:13.757Z,24.01
2023-05-09T16:32:41.671Z,23.80
2023-05-09T16:35:09.640Z,23.80
2023-05-09T16:37:37.531Z,23.97
2023-05-09T16:40:05.717Z,24.04
2023-05-09T16:42:33.118Z,23.53
2023-05-09T16:45:02.076Z,23.74
2023-05-09T16:47:29.297Z,23.96
2023-05-09T16:49:56.694Z,23.28
2023-05-09T16:52:23.840Z,23.77
2023-05-09T16:54:51.152Z,23.87
2023-05-09T16:57:18.864Z,23.87
2023-05-09T16:59:46.070Z,23.75
2023-05-09T17:02:15.033Z,23.84
2023-05-09T17:04:42.521Z,23.53
2023-05-09T17:07:10.945Z,23.50
2023-05-09T17:09:38.572Z,23.70
2023-05-09T17:12:06.997Z,23.80
2023-05-09T17:14:34.579Z,24.36
2023-05-09T17:17:01.841Z,24.67
2023-05-09T17:19:30.700Z,24.72
2023-05-09T17:21:58.980Z,24.87
2023-05-09T17:24:26.472Z,24.10
2023-05-09T17:26:53.650Z,24.27
2023-05-09T17:29:23.787Z,24.06
2023-05-09T17:31:51.218Z,23.68
2023-05-09T17:34:18.410Z,23.47
2023-05-09T17:36:47.253Z,23.35
2023-05-09T17:39:14.588Z,23.42
2023-05-09T17:41:41.754Z,23.52
2023-05-09T17:44:09.074Z,23.66
2023-05-09T17:46:36.515Z,23.48
2023-05-09T17:49:04.071Z,23.72
2023-05-09T17:51:31.216Z,23.81
2023-05-09T17:54:00.380Z,23.65
2023-05-09T17:56:27.826Z,23.58
2023-05-09T17:58:55.065Z,23.46
2023-05-09T18:01:23.120Z,23.25
2023-05-09T18:03:50.566Z,23.26
2023-05-09T18:06:18.303Z,23.34
2023-05-09T18:08:45.811Z,23.10
2023-05-09T18:11:14.632Z,22.85
2023-05-09T18:13:42.215Z,22.65
2023-05-09T18:16:09.562Z,22.56
2023-05-09T18:18:36.776Z,22.35
2023-05-09T18:21:04.088Z,22.39
2023-05-09T18:23:31.780Z,21.86
2023-05-09T18:25:58.983Z,22.19
2023-05-09T18:28:28.012Z,22.45
2023-05-09T18:30:57.747Z,22.64
2023-05-09T18:33:27.488Z,22.83
2023-05-09T18:35:55.813Z,22.86
2023-05-09T18:38:22.983Z,22.44
2023-05-09T18:40:50.178Z,22.56
2023-05-09T18:43:17.648Z,22.78
2023-05-09T18:45:46.615Z,22.75
2023-05-09T18:48:15.377Z,22.71
2023-05-09T18:50:43.045Z,22.62
2023-05-09T18:53:10.619Z,22.55
2023-05-09T18:55:37.867Z,22.60
2023-05-09T18:58:05.254Z,22.26
2023-05-09T19:00:32.563Z,22.60
2023-05-09T19:03:01.394Z,22.60
2023-05-09T19:05:29.151Z,22.93
2023-05-09T19:07:56.757Z,23.12
2023-05-09T19:10:24.121Z,23.02
2023-05-09T19:12:51.487Z,23.18
2023-05-09T19:15:18.906Z,23.36
2023-05-09T19:17:46.151Z,23.31
2023-05-09T19:20:15.953Z,23.28
2023-05-09T19:22:43.618Z,23.16
2023-05-09T19:25:10.924Z,22.97
2023-05-09T19:27:38.854Z,22.79
2023-05-09T19:30:07.689Z,22.85
2023-05-09T19:32:35.051Z,22.68
2023-05-09T19:35:02.473Z,22.71
2023-05-09T19:37:31.856Z,22.49
2023-05-09T19:39:59.353Z,22.52
2023-05-09T19:42:26.679Z,22.53
2023-05-09T19:44:54.072Z,22.53
2023-05-09T19:47:21.326Z,22.56
2023-05-09T19:49:48.999Z,22.40
2023-05-09T19:52:16.704Z,22.34
2023-05-09T19:54:46.038Z,22.18
2023-05-09T19:57:14.974Z,22.09
2023-05-09T19:59:42.881Z,22.07
2023-05-09T20:02:10.087Z,21.84
2023-05-09T20:04:37.856Z,21.75
2023-05-09T20:07:05.219Z,21.73
2023-05-09T20:09:32.943Z,21.55
2023-05-09T20:12:02.632Z,21.49
2023-05-09T20:14:30.877Z,21.55
2023-05-09T20:16:59.049Z,21.50
2023-05-09T20:19:26.825Z,21.36
2023-05-09T20:21:54.505Z,21.33
2023-05-09T20:24:21.627Z,21.12
2023-05-09T20:26:48.755Z,21.11
2023-05-09T20:29:18.020Z,21.13
2023-05-09T20:31:45.305Z,21.14
2023-05-09T20:34:12.798Z,21.08
2023-05-09T20:36:40.476Z,20.93
2023-05-09T20:39:09.716Z,20.90
2023-05-09T20:41:38.274Z,20.89
2023-05-09T20:44:06.230Z,20.78
2023-05-09T20:46:35.281Z,20.74
2023-05-09T20:49:02.915Z,20.63
2023-05-09T20:51:30.762Z,20.57
2023-05-09T20:53:58.615Z,20.58
2023-05-09T20:56:26.296Z,20.65
2023-05-09T20:58:53.911Z,20.55
2023-05-09T21:01:21.583Z,20.61
2023-05-09T21:03:51.318Z,20.47
2023-05-09T21:06:18.540Z,20.29
2023-05-09T21:08:45.723Z,20.18
2023-05-09T21:11:13.015Z,20.12
2023-05-09T21:13:40.259Z,20.02
2023-05-09T21:16:07.800Z,20.03
2023-05-09T21:18:35.154Z,20.03
2023-05-09T21:21:06.571Z,20.01
2023-05-09T21:23:34.180Z,19.99
2023-05-09T21:26:01.786Z,19.91
2023-05-09T21:28:32.278Z,19.84
2023-05-09T21:30:59.458Z,19.79
2023-05-09T21:33:27.054Z,19.77
2023-05-09T21:35:54.814Z,19.75
2023-05-09T21:38:23.842Z,19.67
2023-05-09T21:40:51.665Z,19.60
2023-05-09T21:43:19.275Z,19.52
2023-05-09T21:45:46.634Z,19.40
2023-05-09T21:48:14.250Z,19.33
2023-05-09T21:50:44.874Z,19.21
2023-05-09T21:53:12.437Z,19.30
2023-05-09T21:55:41.862Z,19.09
2023-05-09T21:58:08.650Z,18.97
2023-05-09T22:00:36.007Z,19.08
2023-05-09T22:03:03.379Z,19.10
2023-05-09T22:05:30.999Z,19.13
2023-05-09T22:07:58.908Z,19.08
2023-05-09T22:10:26.177Z,19.15
2023-05-09T22:12:55.152Z,19.04
2023-05-09T22:15:22.905Z,18.72
2023-05-09T22:17:50.261Z,18.75
2023-05-09T22:20:17.798Z,18.72
2023-05-09T22:22:45.606Z,18.58
2023-05-09T22:25:12.779Z,18.78
2023-05-09T22:27:40.101Z,18.72
2023-05-09T22:30:11.291Z,18.93
2023-05-09T22:32:38.489Z,18.93
2023-05-09T22:35:06.637Z,18.98
2023-05-09T22:37:34.567Z,18.90
2023-05-09T22:40:03.395Z,19.02
2023-05-09T22:42:31.294Z,18.93
2023-05-09T22:44:58.595Z,19.05
2023-05-09T22:47:27.254Z,19.06
2023-05-09T22:49:54.864Z,18.98
2023-05-09T22:52:22.821Z,18.97
2023-05-09T22:54:50.278Z,18.88
2023-05-09T22:57:17.489Z,18.84
2023-05-09T22:59:44.794Z,18.84
2023-05-09T23:02:11.828Z,18.73
2023-05-09T23:04:40.749Z,18.77
2023-05-09T23:07:08.637Z,18.70
2023-05-09T23:09:36.667Z,18.58
2023-05-09T23:12:04.353Z,18.47
2023-05-09T23:14:31.587Z,18.39
2023-05-09T23:17:01.403Z,18.48
2023-05-09T23:19:32.041Z,18.46
2023-05-09T23:22:01.313Z,18.31
2023-05-09T23:24:28.950Z,18.26
2023-05-09T23:26:56.456Z,18.35
2023-05-09T23:29:24.464Z,18.35
2023-05-09T23:31:52.530Z,18.39
2023-05-09T23:34:20.276Z,18.32
2023-05-09T23:36:47.923Z,18.24
2023-05-09T23:39:17.320Z,18.01
2023-05-09T23:41:46.077Z,17.97
2023-05-09T23:44:13.461Z,18.01
2023-05-09T23:46:43.965Z,17.87
2023-05-09T23:49:12.573Z,17.79
2023-05-09T23:51:46.368Z,17.78
2023-05-09T23:54:14.605Z,17.92
2023-05-09T23:56:44.321Z,17.93
2023-05-09T23:59:12.250Z,17.85
